SHMÚ vydal meteorologické výstrahy na RainStorm Display warnings

SHMÚ vydal hydrologické výstrahy na   Povodeň z trvalého dažďa Prívalová povodeň Display warnings

METAR

Aeronautical MET Report METAR

METAR description (Slovak)

19.08.2017 - 18:00 UTC

METAR LZTT 191800Z VRB05KT 9999 -SHRA VCTS FEW006 SCT018CB BKN030
16/15 Q1019=

19.08.2017 - 18:30 UTC

METAR LZIB 191830Z 32006KT 9999 -RA FEW010 SCT063 BKN100 18/16
Q1018=
METAR LZKZ 191830Z 01021KT CAVOK 22/17 Q1016=
METAR LZPP 191830Z 33005KT 9999 FEW020 BKN100 18/16 Q1018=
METAR LZSL 191830Z 05004KT 030V100 9999 -TSRA FEW050CB BKN080 20/15
Q1017=
METAR LZTT 191830Z 04008KT 4500 TSRA FEW005 SCT016CB BKN020 16/14
Q1020=
METAR LZZI 191830Z 04005KT 9999 -RA FEW009 SCT013 16/15 Q1019=

19.08.2017 - 18:00 UTC

METAR LZMC 191800Z VRB02KT 9999 FEW006 BKN100 BKN150
17/15 Q1019=
METAR LZPW 191800Z 04008KT 9999 -RA SCT015 OVC027 19/17
Q1018=

 

 

skok na menu ↑


skok na začiatok stránky ↑